createdAt,value
2017-03-15T00:00:30.429Z,1026.05
2017-03-15T00:01:10.965Z,1026.08
2017-03-15T00:01:51.499Z,1026.11
2017-03-15T00:02:32.033Z,1026.1
2017-03-15T00:03:12.567Z,1026.1
2017-03-15T00:03:53.095Z,1026.08
2017-03-15T00:04:33.634Z,1026.06
2017-03-15T00:05:14.171Z,1026.06
2017-03-15T00:05:54.697Z,1026.07
2017-03-15T00:06:35.237Z,1026.05
2017-03-15T00:07:15.771Z,1026.07
2017-03-15T00:07:56.306Z,1026.08
2017-03-15T00:08:36.838Z,1026.1
2017-03-15T00:09:17.379Z,1026.07
2017-03-15T00:09:57.908Z,1026.1
2017-03-15T00:10:38.441Z,1026.09
2017-03-15T00:11:18.973Z,1026.12
2017-03-15T00:11:59.507Z,1026.13
2017-03-15T00:12:40.035Z,1026.1
2017-03-15T00:13:20.568Z,1026.12
2017-03-15T00:14:01.157Z,1026.11
2017-03-15T00:14:41.690Z,1026.13
2017-03-15T00:15:22.227Z,1026.13
2017-03-15T00:16:02.762Z,1026.16
2017-03-15T00:16:43.295Z,1026.18
2017-03-15T00:17:23.827Z,1026.17
2017-03-15T00:18:04.360Z,1026.21
2017-03-15T00:18:44.888Z,1026.21
2017-03-15T00:19:25.423Z,1026.21
2017-03-15T00:20:05.958Z,1026.2
2017-03-15T00:20:46.499Z,1026.18
2017-03-15T00:21:27.038Z,1026.21
2017-03-15T00:22:07.563Z,1026.19
2017-03-15T00:22:48.113Z,1026.2
2017-03-15T00:23:28.650Z,1026.25
2017-03-15T00:24:09.184Z,1026.21
2017-03-15T00:24:49.716Z,1026.21
2017-03-15T00:25:30.252Z,1026.2
2017-03-15T00:26:10.784Z,1026.21
2017-03-15T00:26:51.311Z,1026.18
2017-03-15T00:27:31.846Z,1026.23
2017-03-15T00:28:12.372Z,1026.22
2017-03-15T00:28:52.907Z,1026.18
2017-03-15T00:29:33.445Z,1026.19
2017-03-15T00:30:13.984Z,1026.2
2017-03-15T00:30:54.501Z,1026.17
2017-03-15T00:31:35.040Z,1026.21
2017-03-15T00:32:15.569Z,1026.17
2017-03-15T00:32:56.102Z,1026.14
2017-03-15T00:33:36.638Z,1026.13
2017-03-15T00:34:17.175Z,1026.13
2017-03-15T00:34:57.707Z,1026.14
2017-03-15T00:35:38.243Z,1026.12
2017-03-15T00:36:18.784Z,1026.07
2017-03-15T00:36:59.322Z,1026.11
2017-03-15T00:37:39.854Z,1026.08
2017-03-15T00:38:20.391Z,1026.06
2017-03-15T00:39:00.922Z,1026.03
2017-03-15T00:39:41.455Z,1026.05
2017-03-15T00:40:21.989Z,1026.02
2017-03-15T00:41:02.525Z,1026.03
2017-03-15T00:41:43.060Z,1026.04
2017-03-15T00:42:23.597Z,1025.98
2017-03-15T00:43:04.127Z,1026.04
2017-03-15T00:43:44.648Z,1026.02
2017-03-15T00:44:25.189Z,1025.99
2017-03-15T00:45:05.748Z,1026
2017-03-15T00:45:46.278Z,1026
2017-03-15T00:46:26.815Z,1025.99
2017-03-15T00:47:07.358Z,1025.99
2017-03-15T00:47:47.894Z,1025.98
2017-03-15T00:48:28.433Z,1025.94
2017-03-15T00:49:08.966Z,1025.97
2017-03-15T00:49:49.505Z,1025.94
2017-03-15T00:50:30.033Z,1025.93
2017-03-15T00:51:10.568Z,1025.92
2017-03-15T00:51:51.105Z,1025.89
2017-03-15T00:52:31.642Z,1025.87
2017-03-15T00:53:12.176Z,1025.86
2017-03-15T00:53:52.712Z,1025.83
2017-03-15T00:54:33.246Z,1025.85
2017-03-15T00:55:13.785Z,1025.84
2017-03-15T00:55:54.315Z,1025.88
2017-03-15T00:56:34.854Z,1025.8
2017-03-15T00:57:15.383Z,1025.87
2017-03-15T00:57:55.917Z,1025.87
2017-03-15T00:58:36.453Z,1025.88
2017-03-15T00:59:16.988Z,1025.88
2017-03-15T00:59:57.525Z,1025.88
2017-03-15T01:00:38.059Z,1025.87
2017-03-15T01:01:18.587Z,1025.87
2017-03-15T01:01:59.130Z,1025.83
2017-03-15T01:02:39.682Z,1025.86
2017-03-15T01:03:20.199Z,1025.83
2017-03-15T01:04:00.733Z,1025.8
2017-03-15T01:04:41.266Z,1025.79
2017-03-15T01:05:21.800Z,1025.82
2017-03-15T01:06:02.337Z,1025.81
2017-03-15T01:06:42.873Z,1025.79
2017-03-15T01:07:23.407Z,1025.81
2017-03-15T01:08:03.949Z,1025.79
2017-03-15T01:08:44.485Z,1025.81
2017-03-15T01:09:25.029Z,1025.75
2017-03-15T01:10:05.569Z,1025.76
2017-03-15T01:10:46.108Z,1025.8
2017-03-15T01:11:26.636Z,1025.82
2017-03-15T01:12:07.164Z,1025.77
2017-03-15T01:12:47.700Z,1025.81
2017-03-15T01:13:28.236Z,1025.79
2017-03-15T01:14:08.769Z,1025.8
2017-03-15T01:14:49.295Z,1025.76
2017-03-15T01:15:29.833Z,1025.77
2017-03-15T01:16:10.372Z,1025.74
2017-03-15T01:16:50.900Z,1025.76
2017-03-15T01:17:31.437Z,1025.71
2017-03-15T01:18:11.974Z,1025.68
2017-03-15T01:18:52.524Z,1025.69
2017-03-15T01:19:33.040Z,1025.7
2017-03-15T01:20:13.576Z,1025.72
2017-03-15T01:20:54.107Z,1025.73
2017-03-15T01:21:34.642Z,1025.71
2017-03-15T01:22:15.176Z,1025.72
2017-03-15T01:22:55.710Z,1025.75
2017-03-15T01:23:36.245Z,1025.71
2017-03-15T01:24:16.779Z,1025.67
2017-03-15T01:24:57.310Z,1025.67
2017-03-15T01:25:37.847Z,1025.68
2017-03-15T01:26:18.386Z,1025.66
2017-03-15T01:26:58.949Z,1025.67
2017-03-15T01:27:39.454Z,1025.65
2017-03-15T01:28:19.983Z,1025.6
2017-03-15T01:29:00.520Z,1025.63
2017-03-15T01:29:41.062Z,1025.58
2017-03-15T01:30:21.596Z,1025.58
2017-03-15T01:31:02.131Z,1025.58
2017-03-15T01:31:42.669Z,1025.57
2017-03-15T01:32:23.202Z,1025.55
2017-03-15T01:33:03.737Z,1025.57
2017-03-15T01:33:44.274Z,1025.56
2017-03-15T01:34:24.818Z,1025.57
2017-03-15T01:35:05.353Z,1025.56
2017-03-15T01:35:45.886Z,1025.54
2017-03-15T01:36:26.412Z,1025.52
2017-03-15T01:37:06.953Z,1025.54
2017-03-15T01:37:47.490Z,1025.51
2017-03-15T01:38:28.020Z,1025.51
2017-03-15T01:39:08.553Z,1025.52
2017-03-15T01:39:49.087Z,1025.5
2017-03-15T01:40:29.625Z,1025.54
2017-03-15T01:41:10.160Z,1025.52
2017-03-15T01:41:50.695Z,1025.53
2017-03-15T01:42:31.229Z,1025.54
2017-03-15T01:43:11.772Z,1025.52
2017-03-15T01:43:52.307Z,1025.56
2017-03-15T01:44:32.842Z,1025.53
2017-03-15T01:45:13.378Z,1025.53
2017-03-15T01:45:53.914Z,1025.52
2017-03-15T01:46:34.450Z,1025.53
2017-03-15T01:47:14.985Z,1025.5
2017-03-15T01:47:55.525Z,1025.5
2017-03-15T01:48:36.062Z,1025.5
2017-03-15T01:49:16.596Z,1025.53
2017-03-15T01:49:57.130Z,1025.54
2017-03-15T01:50:37.664Z,1025.49
2017-03-15T01:51:18.202Z,1025.53
2017-03-15T01:51:58.730Z,1025.54
2017-03-15T01:52:39.264Z,1025.54
2017-03-15T01:53:19.807Z,1025.5
2017-03-15T01:54:00.338Z,1025.48
2017-03-15T01:54:40.872Z,1025.49
2017-03-15T01:55:21.402Z,1025.46
2017-03-15T01:56:01.945Z,1025.43
2017-03-15T01:56:42.481Z,1025.41
2017-03-15T01:57:23.018Z,1025.4
2017-03-15T01:58:03.561Z,1025.41
2017-03-15T01:58:44.095Z,1025.41
2017-03-15T01:59:24.649Z,1025.44
2017-03-15T02:00:05.187Z,1025.43
2017-03-15T02:00:45.721Z,1025.45
2017-03-15T02:01:26.255Z,1025.47
2017-03-15T02:02:06.786Z,1025.47
2017-03-15T02:02:47.321Z,1025.47
2017-03-15T02:03:27.857Z,1025.48
2017-03-15T02:04:08.393Z,1025.46
2017-03-15T02:04:48.926Z,1025.41
2017-03-15T02:05:29.460Z,1025.45
2017-03-15T02:06:09.992Z,1025.46
2017-03-15T02:06:50.529Z,1025.44
2017-03-15T02:07:31.067Z,1025.41
2017-03-15T02:08:11.603Z,1025.4
2017-03-15T02:08:52.136Z,1025.38
2017-03-15T02:09:32.669Z,1025.35
2017-03-15T02:10:13.212Z,1025.37
2017-03-15T02:10:53.746Z,1025.35
2017-03-15T02:11:34.283Z,1025.35
2017-03-15T02:12:14.826Z,1025.37
2017-03-15T02:12:55.362Z,1025.36
2017-03-15T02:13:35.898Z,1025.37
2017-03-15T02:14:16.430Z,1025.36
2017-03-15T02:14:56.956Z,1025.34
2017-03-15T02:15:37.495Z,1025.37
2017-03-15T02:16:18.031Z,1025.38
2017-03-15T02:16:58.568Z,1025.36
2017-03-15T02:17:39.104Z,1025.37
2017-03-15T02:18:19.637Z,1025.38
2017-03-15T02:19:00.166Z,1025.38
2017-03-15T02:19:40.702Z,1025.36
2017-03-15T02:20:21.235Z,1025.29
2017-03-15T02:21:01.780Z,1025.29
2017-03-15T02:21:42.318Z,1025.27
2017-03-15T02:22:22.850Z,1025.26
2017-03-15T02:23:03.385Z,1025.27
2017-03-15T02:23:43.926Z,1025.28
2017-03-15T02:24:24.458Z,1025.3
2017-03-15T02:25:04.994Z,1025.31
2017-03-15T02:25:45.533Z,1025.32
2017-03-15T02:26:26.062Z,1025.32
2017-03-15T02:27:06.595Z,1025.33
2017-03-15T02:27:47.129Z,1025.36
2017-03-15T02:28:27.664Z,1025.35
2017-03-15T02:29:08.207Z,1025.35
2017-03-15T02:29:48.752Z,1025.36
2017-03-15T02:30:29.293Z,1025.34
2017-03-15T02:31:09.835Z,1025.37
2017-03-15T02:31:50.374Z,1025.35
2017-03-15T02:32:30.901Z,1025.36
2017-03-15T02:33:11.430Z,1025.34
2017-03-15T02:33:51.963Z,1025.36
2017-03-15T02:34:32.498Z,1025.3
2017-03-15T02:35:13.039Z,1025.33
2017-03-15T02:35:53.568Z,1025.32
2017-03-15T02:36:34.103Z,1025.34
2017-03-15T02:37:14.638Z,1025.32
2017-03-15T02:37:55.175Z,1025.31
2017-03-15T02:38:35.714Z,1025.33
2017-03-15T02:39:16.253Z,1025.34
2017-03-15T02:39:56.787Z,1025.32
2017-03-15T02:40:37.316Z,1025.32
2017-03-15T02:41:17.857Z,1025.32
2017-03-15T02:41:58.390Z,1025.34
2017-03-15T02:42:38.927Z,1025.35
2017-03-15T02:43:19.470Z,1025.37
2017-03-15T02:44:00.006Z,1025.34
2017-03-15T02:44:40.538Z,1025.34
2017-03-15T02:45:21.071Z,1025.35
2017-03-15T02:46:01.599Z,1025.36
2017-03-15T02:46:42.132Z,1025.3
2017-03-15T02:47:22.670Z,1025.31
2017-03-15T02:48:03.205Z,1025.31
2017-03-15T02:48:43.754Z,1025.27
2017-03-15T02:49:24.292Z,1025.27
2017-03-15T02:50:04.827Z,1025.28
2017-03-15T02:50:45.363Z,1025.26
2017-03-15T02:51:25.897Z,1025.26
2017-03-15T02:52:06.433Z,1025.21
2017-03-15T02:52:46.968Z,1025.26
2017-03-15T02:53:27.503Z,1025.22
2017-03-15T02:54:08.045Z,1025.27
2017-03-15T02:54:48.579Z,1025.23
2017-03-15T02:55:29.103Z,1025.27
2017-03-15T02:56:09.639Z,1025.23
2017-03-15T02:56:50.178Z,1025.24
2017-03-15T02:57:30.716Z,1025.26
2017-03-15T02:58:11.255Z,1025.23
2017-03-15T02:58:51.796Z,1025.22
2017-03-15T02:59:32.325Z,1025.2
2017-03-15T03:00:12.862Z,1025.18
2017-03-15T03:00:53.394Z,1025.2
2017-03-15T03:01:33.932Z,1025.21
2017-03-15T03:02:14.467Z,1025.18
2017-03-15T03:02:55.020Z,1025.16
2017-03-15T03:03:35.547Z,1025.21
2017-03-15T03:04:16.081Z,1025.19
2017-03-15T03:04:56.613Z,1025.18
2017-03-15T03:05:37.140Z,1025.16
2017-03-15T03:06:17.684Z,1025.18
2017-03-15T03:06:58.222Z,1025.19
2017-03-15T03:07:38.764Z,1025.16
2017-03-15T03:08:19.304Z,1025.17
2017-03-15T03:08:59.837Z,1025.15
2017-03-15T03:09:40.367Z,1025.15
2017-03-15T03:10:20.911Z,1025.18
2017-03-15T03:11:01.448Z,1025.15
2017-03-15T03:11:41.982Z,1025.16
2017-03-15T03:12:22.516Z,1025.15
2017-03-15T03:13:03.052Z,1025.18
2017-03-15T03:13:43.582Z,1025.17
2017-03-15T03:14:24.120Z,1025.16
2017-03-15T03:15:04.666Z,1025.19
2017-03-15T03:15:45.191Z,1025.19
2017-03-15T03:16:25.729Z,1025.14
2017-03-15T03:17:06.266Z,1025.18
2017-03-15T03:17:46.800Z,1025.13
2017-03-15T03:18:27.337Z,1025.12
2017-03-15T03:19:07.877Z,1025.16
2017-03-15T03:19:48.409Z,1025.16
2017-03-15T03:20:28.946Z,1025.18
2017-03-15T03:21:09.485Z,1025.18
2017-03-15T03:21:50.024Z,1025.17
2017-03-15T03:22:30.561Z,1025.14
2017-03-15T03:23:11.098Z,1025.16
2017-03-15T03:23:51.635Z,1025.16
2017-03-15T03:24:32.169Z,1025.1
2017-03-15T03:25:12.698Z,1025.13
2017-03-15T03:25:53.238Z,1025.11
2017-03-15T03:26:33.779Z,1025.13
2017-03-15T03:27:14.318Z,1025.12
2017-03-15T03:27:54.858Z,1025.1
2017-03-15T03:28:35.394Z,1025.08
2017-03-15T03:29:15.926Z,1025.11
2017-03-15T03:29:56.463Z,1025.1
2017-03-15T03:30:37.008Z,1025.1
2017-03-15T03:31:17.542Z,1025.1
2017-03-15T03:31:58.082Z,1025.11
2017-03-15T03:32:38.621Z,1025.12
2017-03-15T03:33:19.156Z,1025.11
2017-03-15T03:33:59.691Z,1025.1
2017-03-15T03:34:40.222Z,1025.11
2017-03-15T03:35:20.758Z,1025.12
2017-03-15T03:36:01.297Z,1025.12
2017-03-15T03:36:41.835Z,1025.11
2017-03-15T03:37:22.376Z,1025.12
2017-03-15T03:38:02.906Z,1025.1
2017-03-15T03:38:43.447Z,1025.09
2017-03-15T03:39:23.983Z,1025.14
2017-03-15T03:40:04.516Z,1025.14
2017-03-15T03:40:45.050Z,1025.17
2017-03-15T03:41:25.591Z,1025.21
2017-03-15T03:42:06.131Z,1025.25
2017-03-15T03:42:46.668Z,1025.25
2017-03-15T03:43:27.201Z,1025.25
2017-03-15T03:44:07.738Z,1025.27
2017-03-15T03:44:48.285Z,1025.28
2017-03-15T03:45:28.826Z,1025.32
2017-03-15T03:46:09.365Z,1025.28
2017-03-15T03:46:49.902Z,1025.27
2017-03-15T03:47:30.437Z,1025.24
2017-03-15T03:48:10.972Z,1025.21
2017-03-15T03:48:51.503Z,1025.22
2017-03-15T03:49:32.044Z,1025.25
2017-03-15T03:50:12.581Z,1025.21
2017-03-15T03:50:53.121Z,1025.25
2017-03-15T03:51:33.655Z,1025.3
2017-03-15T03:52:14.191Z,1025.3
2017-03-15T03:52:54.726Z,1025.3
2017-03-15T03:53:35.258Z,1025.29
2017-03-15T03:54:15.797Z,1025.31
2017-03-15T03:54:56.352Z,1025.32
2017-03-15T03:55:36.874Z,1025.29
2017-03-15T03:56:17.409Z,1025.32
2017-03-15T03:56:57.946Z,1025.32
2017-03-15T03:57:38.479Z,1025.36
2017-03-15T03:58:19.012Z,1025.34
2017-03-15T03:58:59.538Z,1025.35
2017-03-15T03:59:40.077Z,1025.39
2017-03-15T04:00:20.690Z,1025.36
2017-03-15T04:01:01.221Z,1025.37
2017-03-15T04:01:41.760Z,1025.39
2017-03-15T04:02:22.307Z,1025.41
2017-03-15T04:03:02.840Z,1025.41
2017-03-15T04:03:43.382Z,1025.44
2017-03-15T04:04:23.923Z,1025.44
2017-03-15T04:05:04.462Z,1025.47
2017-03-15T04:05:45.001Z,1025.47
2017-03-15T04:06:25.536Z,1025.47
2017-03-15T04:07:06.070Z,1025.5
2017-03-15T04:07:46.607Z,1025.52
2017-03-15T04:08:27.148Z,1025.49
2017-03-15T04:09:07.688Z,1025.49
2017-03-15T04:09:48.226Z,1025.52
2017-03-15T04:10:28.767Z,1025.51
2017-03-15T04:11:09.306Z,1025.53
2017-03-15T04:11:49.872Z,1025.53
2017-03-15T04:12:30.410Z,1025.54
2017-03-15T04:13:10.943Z,1025.54
2017-03-15T04:13:51.509Z,1025.55
2017-03-15T04:14:32.045Z,1025.54
2017-03-15T04:15:12.579Z,1025.56
2017-03-15T04:15:53.115Z,1025.57
2017-03-15T04:16:33.657Z,1025.54
2017-03-15T04:17:14.196Z,1025.56
2017-03-15T04:17:54.791Z,1025.55
2017-03-15T04:18:35.319Z,1025.6
2017-03-15T04:19:15.860Z,1025.57
2017-03-15T04:19:56.397Z,1025.64
2017-03-15T04:20:36.934Z,1025.57
2017-03-15T04:21:17.471Z,1025.6
2017-03-15T04:21:58.005Z,1025.64
2017-03-15T04:22:38.539Z,1025.62
2017-03-15T04:23:19.073Z,1025.64
2017-03-15T04:23:59.605Z,1025.63
2017-03-15T04:24:40.140Z,1025.64
2017-03-15T04:25:20.674Z,1025.64
2017-03-15T04:26:01.209Z,1025.61
2017-03-15T04:26:41.745Z,1025.6
2017-03-15T04:27:22.286Z,1025.56
2017-03-15T04:28:02.856Z,1025.6
2017-03-15T04:28:43.384Z,1025.54
2017-03-15T04:29:23.920Z,1025.56
2017-03-15T04:30:04.463Z,1025.57
2017-03-15T04:30:44.997Z,1025.55
2017-03-15T04:31:25.556Z,1025.55
2017-03-15T04:32:06.201Z,1025.56
2017-03-15T04:32:46.740Z,1025.53
2017-03-15T04:33:27.280Z,1025.53
2017-03-15T04:34:07.816Z,1025.54
2017-03-15T04:34:48.363Z,1025.54
2017-03-15T04:35:28.887Z,1025.56
2017-03-15T04:36:09.421Z,1025.6
2017-03-15T04:36:49.955Z,1025.61
2017-03-15T04:37:30.493Z,1025.59
2017-03-15T04:38:11.019Z,1025.61
2017-03-15T04:38:51.549Z,1025.56
2017-03-15T04:39:32.081Z,1025.59
2017-03-15T04:40:12.619Z,1025.59
2017-03-15T04:40:53.153Z,1025.63
2017-03-15T04:41:33.688Z,1025.63
2017-03-15T04:42:14.227Z,1025.61
2017-03-15T04:42:54.761Z,1025.59
2017-03-15T04:43:35.289Z,1025.6
2017-03-15T04:44:15.820Z,1025.57
2017-03-15T04:44:56.360Z,1025.59
2017-03-15T04:45:36.901Z,1025.58
2017-03-15T04:46:17.440Z,1025.56
2017-03-15T04:46:57.977Z,1025.58
2017-03-15T04:47:38.507Z,1025.58
2017-03-15T04:48:19.045Z,1025.61
2017-03-15T04:48:59.583Z,1025.58
2017-03-15T04:49:40.126Z,1025.59
2017-03-15T04:50:20.697Z,1025.57
2017-03-15T04:51:01.238Z,1025.61
2017-03-15T04:51:41.778Z,1025.61
2017-03-15T04:52:22.402Z,1025.63
2017-03-15T04:53:02.888Z,1025.65
2017-03-15T04:53:43.428Z,1025.68
2017-03-15T04:54:23.965Z,1025.7
2017-03-15T04:55:04.501Z,1025.7
2017-03-15T04:55:45.034Z,1025.71
2017-03-15T04:56:25.570Z,1025.71
2017-03-15T04:57:06.114Z,1025.71
2017-03-15T04:57:46.653Z,1025.69
2017-03-15T04:58:27.183Z,1025.69
2017-03-15T04:59:07.722Z,1025.69
2017-03-15T04:59:48.261Z,1025.64
2017-03-15T05:00:28.805Z,1025.64
2017-03-15T05:01:09.341Z,1025.67
2017-03-15T05:01:49.877Z,1025.64
2017-03-15T05:02:30.410Z,1025.63
2017-03-15T05:03:10.938Z,1025.63
2017-03-15T05:03:51.473Z,1025.65
2017-03-15T05:04:32.017Z,1025.61
2017-03-15T05:05:12.555Z,1025.64
2017-03-15T05:05:53.094Z,1025.65
2017-03-15T05:06:33.628Z,1025.61
2017-03-15T05:07:14.164Z,1025.66
2017-03-15T05:07:54.694Z,1025.6
2017-03-15T05:08:35.234Z,1025.63
2017-03-15T05:09:15.762Z,1025.69
2017-03-15T05:09:56.298Z,1025.69
2017-03-15T05:10:36.831Z,1025.74
2017-03-15T05:11:17.365Z,1025.76
2017-03-15T05:11:57.897Z,1025.74
2017-03-15T05:12:38.446Z,1025.76
2017-03-15T05:13:18.987Z,1025.78
2017-03-15T05:13:59.532Z,1025.77
2017-03-15T05:14:40.074Z,1025.75
2017-03-15T05:15:20.614Z,1025.78
2017-03-15T05:16:01.149Z,1025.77
2017-03-15T05:16:41.686Z,1025.79
2017-03-15T05:17:22.291Z,1025.79
2017-03-15T05:18:02.831Z,1025.76
2017-03-15T05:18:43.372Z,1025.78
2017-03-15T05:19:23.907Z,1025.77
2017-03-15T05:20:04.444Z,1025.79
2017-03-15T05:20:44.986Z,1025.8
2017-03-15T05:21:25.524Z,1025.78
2017-03-15T05:22:06.049Z,1025.79
2017-03-15T05:22:46.595Z,1025.78
2017-03-15T05:23:27.259Z,1025.76
2017-03-15T05:24:07.770Z,1025.76
2017-03-15T05:24:48.301Z,1025.77
2017-03-15T05:25:28.833Z,1025.76
2017-03-15T05:26:09.363Z,1025.75
2017-03-15T05:26:50.135Z,1025.76
2017-03-15T05:27:30.909Z,1025.76
2017-03-15T05:28:11.447Z,1025.73
2017-03-15T05:28:51.985Z,1025.71
2017-03-15T05:29:32.525Z,1025.76
2017-03-15T05:30:13.060Z,1025.75
2017-03-15T05:30:53.597Z,1025.74
2017-03-15T05:31:34.144Z,1025.73
2017-03-15T05:32:14.678Z,1025.77
2017-03-15T05:32:55.245Z,1025.79
2017-03-15T05:33:35.780Z,1025.84
2017-03-15T05:34:16.313Z,1025.79
2017-03-15T05:34:56.849Z,1025.81
2017-03-15T05:35:37.388Z,1025.78
2017-03-15T05:36:17.930Z,1025.81
2017-03-15T05:36:58.463Z,1025.76
2017-03-15T05:37:39.004Z,1025.75
2017-03-15T05:38:19.539Z,1025.77
2017-03-15T05:39:00.073Z,1025.78
2017-03-15T05:39:40.615Z,1025.79
2017-03-15T05:40:21.156Z,1025.8
2017-03-15T05:41:01.697Z,1025.79
2017-03-15T05:41:42.221Z,1025.78
2017-03-15T05:42:22.789Z,1025.79
2017-03-15T05:43:03.302Z,1025.83
2017-03-15T05:43:43.838Z,1025.79
2017-03-15T05:44:24.367Z,1025.77
2017-03-15T05:45:04.897Z,1025.77
2017-03-15T05:45:45.442Z,1025.82
2017-03-15T05:46:25.979Z,1025.8
2017-03-15T05:47:06.518Z,1025.82
2017-03-15T05:47:47.057Z,1025.83
2017-03-15T05:48:27.667Z,1025.81
2017-03-15T05:49:08.252Z,1025.84
2017-03-15T05:49:48.780Z,1025.79
2017-03-15T05:50:29.364Z,1025.82
2017-03-15T05:51:09.843Z,1025.84
2017-03-15T05:51:50.381Z,1025.84
2017-03-15T05:52:30.926Z,1025.86
2017-03-15T05:53:11.460Z,1025.88
2017-03-15T05:53:52.001Z,1025.88
2017-03-15T05:54:32.538Z,1025.89
2017-03-15T05:55:13.070Z,1025.92
2017-03-15T05:55:53.601Z,1025.91
2017-03-15T05:56:34.141Z,1025.94
2017-03-15T05:57:14.678Z,1025.94
2017-03-15T05:57:55.218Z,1025.96
2017-03-15T05:58:35.775Z,1025.94
2017-03-15T05:59:16.286Z,1025.93
2017-03-15T05:59:56.825Z,1025.93
2017-03-15T06:00:37.358Z,1025.93
2017-03-15T06:01:17.886Z,1025.92
2017-03-15T06:01:58.424Z,1025.95
2017-03-15T06:02:38.967Z,1025.93
2017-03-15T06:03:19.503Z,1025.92
2017-03-15T06:04:00.032Z,1025.96
2017-03-15T06:04:40.574Z,1025.94
2017-03-15T06:05:21.108Z,1025.98
2017-03-15T06:06:01.642Z,1025.97
2017-03-15T06:06:42.180Z,1025.98
2017-03-15T06:07:22.711Z,1025.99
2017-03-15T06:08:03.249Z,1026
2017-03-15T06:08:43.791Z,1025.96
2017-03-15T06:09:24.314Z,1026.04
2017-03-15T06:10:04.849Z,1026.03
2017-03-15T06:10:45.385Z,1026.08
2017-03-15T06:11:25.921Z,1026.05
2017-03-15T06:12:06.460Z,1026.06
2017-03-15T06:12:47.029Z,1026.08
2017-03-15T06:13:27.565Z,1026.04
2017-03-15T06:14:08.099Z,1026.06
2017-03-15T06:14:48.636Z,1026.02
2017-03-15T06:15:29.171Z,1026.06
2017-03-15T06:16:09.706Z,1026.06
2017-03-15T06:16:50.278Z,1026.04
2017-03-15T06:17:30.855Z,1026.09
2017-03-15T06:18:11.379Z,1026.06
2017-03-15T06:18:52.984Z,1026.06
2017-03-15T06:19:34.481Z,1026.11
2017-03-15T06:20:14.997Z,1026.11
2017-03-15T06:20:55.536Z,1026.13
2017-03-15T06:21:36.066Z,1026.2
2017-03-15T06:22:16.604Z,1026.17
2017-03-15T06:22:57.154Z,1026.21
2017-03-15T06:23:37.682Z,1026.15
2017-03-15T06:24:18.205Z,1026.18
2017-03-15T06:24:58.757Z,1026.15
2017-03-15T06:25:39.292Z,1026.15
2017-03-15T06:26:19.820Z,1026.14
2017-03-15T06:27:00.350Z,1026.15
2017-03-15T06:27:40.890Z,1026.18
2017-03-15T06:28:21.421Z,1026.19
2017-03-15T06:29:01.955Z,1026.21
2017-03-15T06:29:42.492Z,1026.21
2017-03-15T06:30:23.026Z,1026.23
2017-03-15T06:31:03.566Z,1026.24
2017-03-15T06:31:44.114Z,1026.21
2017-03-15T06:32:24.680Z,1026.23
2017-03-15T06:33:05.227Z,1026.25
2017-03-15T06:33:45.769Z,1026.26
2017-03-15T06:34:26.299Z,1026.26
2017-03-15T06:37:00.855Z,1026.24
2017-03-15T06:37:41.392Z,1026.25
2017-03-15T06:38:21.924Z,1026.21
2017-03-15T06:39:02.459Z,1026.21
2017-03-15T06:39:42.988Z,1026.25
2017-03-15T06:40:23.552Z,1026.23
2017-03-15T06:41:04.053Z,1026.25
2017-03-15T06:41:44.573Z,1026.29
2017-03-15T06:42:25.105Z,1026.25
2017-03-15T06:43:05.730Z,1026.26
2017-03-15T06:43:46.288Z,1026.3
2017-03-15T06:44:26.808Z,1026.3
2017-03-15T06:45:07.344Z,1026.33
2017-03-15T06:45:47.878Z,1026.36
2017-03-15T06:46:28.407Z,1026.34
2017-03-15T06:47:08.945Z,1026.36
2017-03-15T06:47:49.469Z,1026.4
2017-03-15T06:48:29.997Z,1026.37
2017-03-15T06:49:10.541Z,1026.38
2017-03-15T06:49:51.078Z,1026.38
2017-03-15T06:50:31.601Z,1026.38
2017-03-15T06:51:12.132Z,1026.36
2017-03-15T06:51:52.668Z,1026.37
2017-03-15T06:52:33.198Z,1026.41
2017-03-15T06:53:13.735Z,1026.37
2017-03-15T06:53:54.293Z,1026.39
2017-03-15T06:54:35.067Z,1026.4
2017-03-15T06:55:15.724Z,1026.39
2017-03-15T06:55:56.263Z,1026.43
2017-03-15T06:56:36.796Z,1026.41
2017-03-15T06:57:17.322Z,1026.43
2017-03-15T06:57:57.856Z,1026.46
2017-03-15T06:58:38.383Z,1026.49
2017-03-15T06:59:18.914Z,1026.47
2017-03-15T06:59:59.450Z,1026.47
2017-03-15T07:00:39.981Z,1026.44
2017-03-15T07:01:20.515Z,1026.43
2017-03-15T07:02:01.052Z,1026.43
2017-03-15T07:02:41.583Z,1026.37
2017-03-15T07:03:22.118Z,1026.38
2017-03-15T07:04:02.659Z,1026.38
2017-03-15T07:04:43.186Z,1026.37
2017-03-15T07:05:23.723Z,1026.34
2017-03-15T07:06:04.253Z,1026.42
2017-03-15T07:06:44.791Z,1026.34
2017-03-15T07:07:25.324Z,1026.34
2017-03-15T07:08:05.864Z,1026.36
2017-03-15T07:08:46.401Z,1026.34
2017-03-15T07:09:26.927Z,1026.36
2017-03-15T07:10:07.459Z,1026.37
2017-03-15T07:10:47.993Z,1026.34
2017-03-15T07:11:28.526Z,1026.34
2017-03-15T07:12:09.064Z,1026.35
2017-03-15T07:12:49.621Z,1026.34
2017-03-15T07:13:30.162Z,1026.35
2017-03-15T07:14:10.690Z,1026.38
2017-03-15T07:14:51.213Z,1026.34
2017-03-15T07:15:31.753Z,1026.36
2017-03-15T07:16:12.288Z,1026.37
2017-03-15T07:16:52.828Z,1026.36
2017-03-15T07:17:33.369Z,1026.32
2017-03-15T07:18:13.908Z,1026.34
2017-03-15T07:18:54.440Z,1026.31
2017-03-15T07:19:34.967Z,1026.3
2017-03-15T07:20:15.495Z,1026.3
2017-03-15T07:20:56.032Z,1026.32
2017-03-15T07:21:36.568Z,1026.29
2017-03-15T07:22:17.112Z,1026.32
2017-03-15T07:22:57.647Z,1026.31
2017-03-15T07:23:38.182Z,1026.34
2017-03-15T07:24:18.718Z,1026.31
2017-03-15T07:24:59.260Z,1026.31
2017-03-15T07:25:39.790Z,1026.33
2017-03-15T07:26:20.325Z,1026.29
2017-03-15T07:27:00.863Z,1026.26
2017-03-15T07:27:41.403Z,1026.27
2017-03-15T07:28:21.938Z,1026.28
2017-03-15T07:29:02.457Z,1026.27
2017-03-15T07:29:42.998Z,1026.25
2017-03-15T07:30:23.538Z,1026.24
2017-03-15T07:31:04.078Z,1026.22
2017-03-15T07:31:44.618Z,1026.25
2017-03-15T07:32:25.159Z,1026.26
2017-03-15T07:33:05.695Z,1026.23
2017-03-15T07:33:46.285Z,1026.26
2017-03-15T07:34:26.826Z,1026.24
2017-03-15T07:35:07.358Z,1026.24
2017-03-15T07:35:47.883Z,1026.22
2017-03-15T07:36:28.427Z,1026.23
2017-03-15T07:37:08.962Z,1026.2
2017-03-15T07:37:49.494Z,1026.2
2017-03-15T07:38:30.030Z,1026.19
2017-03-15T07:39:10.565Z,1026.19
2017-03-15T07:39:51.097Z,1026.19
2017-03-15T07:40:31.626Z,1026.18
2017-03-15T07:41:12.204Z,1026.19
2017-03-15T07:41:52.735Z,1026.18
2017-03-15T07:42:33.272Z,1026.19
2017-03-15T07:43:13.814Z,1026.21
2017-03-15T07:43:54.352Z,1026.19
2017-03-15T07:44:34.893Z,1026.2
2017-03-15T07:45:15.427Z,1026.22
2017-03-15T07:45:55.971Z,1026.18
2017-03-15T07:46:36.489Z,1026.19
2017-03-15T07:47:17.007Z,1026.21
2017-03-15T07:47:57.523Z,1026.16
2017-03-15T07:48:38.079Z,1026.14
2017-03-15T07:49:18.643Z,1026.15
2017-03-15T07:49:59.244Z,1026.14
2017-03-15T07:50:39.779Z,1026.17
2017-03-15T07:51:20.309Z,1026.14
2017-03-15T07:52:00.851Z,1026.14
2017-03-15T07:52:41.387Z,1026.14
2017-03-15T07:53:21.918Z,1026.12
2017-03-15T07:54:02.449Z,1026.2
2017-03-15T07:54:42.981Z,1026.14
2017-03-15T07:55:23.516Z,1026.17
2017-03-15T07:56:04.062Z,1026.22
2017-03-15T07:56:44.605Z,1026.18
2017-03-15T07:57:25.145Z,1026.2
2017-03-15T07:58:05.684Z,1026.19
2017-03-15T07:58:46.221Z,1026.17
2017-03-15T07:59:26.750Z,1026.19
2017-03-15T08:00:07.288Z,1026.17
2017-03-15T08:00:47.822Z,1026.13
2017-03-15T08:01:28.356Z,1026.08
2017-03-15T08:02:08.894Z,1026.09
2017-03-15T08:02:49.430Z,1026.06
2017-03-15T08:03:29.961Z,1026.04
2017-03-15T08:04:10.500Z,1026.04
2017-03-15T08:04:51.031Z,1026.01
2017-03-15T08:05:31.561Z,1026
2017-03-15T08:06:12.102Z,1026.02
2017-03-15T08:06:52.639Z,1026.04
2017-03-15T08:07:33.169Z,1026.01
2017-03-15T08:08:13.705Z,1026.01
2017-03-15T08:08:54.239Z,1026
2017-03-15T08:09:34.769Z,1026.02
2017-03-15T08:10:15.307Z,1026.01
2017-03-15T08:10:55.841Z,1026.02
2017-03-15T08:11:36.373Z,1026.02
2017-03-15T08:12:16.906Z,1026.02
2017-03-15T08:12:57.435Z,1026.06
2017-03-15T08:13:37.971Z,1026.06
2017-03-15T08:14:18.505Z,1026.07